createdAt,value
2017-11-03T00:02:08.099Z,89.50
2017-11-03T00:04:36.515Z,88.40
2017-11-03T00:07:04.148Z,88.40
2017-11-03T00:09:31.766Z,88.80
2017-11-03T00:11:59.414Z,89.10
2017-11-03T00:14:27.052Z,89.00
2017-11-03T00:16:54.698Z,89.30
2017-11-03T00:19:22.350Z,89.10
2017-11-03T00:21:49.962Z,88.70
2017-11-03T00:24:17.620Z,88.60
2017-11-03T00:26:45.998Z,89.10
2017-11-03T00:29:13.646Z,89.10
2017-11-03T00:31:41.275Z,88.60
2017-11-03T00:34:08.909Z,88.20
2017-11-03T00:36:37.344Z,88.30
2017-11-03T00:39:04.970Z,88.30
2017-11-03T00:41:32.638Z,88.30
2017-11-03T00:44:00.266Z,89.50
2017-11-03T00:46:27.962Z,89.90
2017-11-03T00:48:55.613Z,88.80
2017-11-03T00:51:24.003Z,89.40
2017-11-03T00:53:51.705Z,89.30
2017-11-03T00:56:19.333Z,89.50
2017-11-03T00:58:46.946Z,90.10
2017-11-03T01:01:14.600Z,90.40
2017-11-03T01:03:42.209Z,90.30
2017-11-03T01:06:09.864Z,89.60
2017-11-03T01:08:38.599Z,90.20
2017-11-03T01:11:06.226Z,90.20
2017-11-03T01:13:33.879Z,89.90
2017-11-03T01:16:01.498Z,90.00
2017-11-03T01:18:29.149Z,90.40
2017-11-03T01:20:56.770Z,90.00
2017-11-03T01:23:25.157Z,88.80
2017-11-03T01:25:52.830Z,88.80
2017-11-03T01:28:20.459Z,88.20
2017-11-03T01:30:48.109Z,87.80
2017-11-03T01:33:15.728Z,88.10
2017-11-03T01:35:44.118Z,88.70
2017-11-03T01:38:11.769Z,88.70
2017-11-03T01:40:39.408Z,90.40
2017-11-03T01:43:07.050Z,90.00
2017-11-03T01:45:34.662Z,90.60
2017-11-03T01:48:03.041Z,92.80
2017-11-03T01:50:31.458Z,92.80
2017-11-03T01:52:59.075Z,92.70
2017-11-03T01:55:26.722Z,93.30
2017-11-03T01:57:54.342Z,93.00
2017-11-03T02:00:22.786Z,92.80
2017-11-03T02:02:50.440Z,92.80
2017-11-03T02:05:18.104Z,92.10
2017-11-03T02:07:46.518Z,91.40
2017-11-03T02:10:14.143Z,91.20
2017-11-03T02:12:41.764Z,91.60
2017-11-03T02:15:10.175Z,92.40
2017-11-03T02:17:37.806Z,92.40
2017-11-03T02:20:05.454Z,92.80
2017-11-03T02:22:33.076Z,92.20
2017-11-03T02:25:00.690Z,91.70
2017-11-03T02:27:28.358Z,92.70
2017-11-03T02:29:56.028Z,93.20
2017-11-03T02:32:23.706Z,91.90
2017-11-03T02:34:51.335Z,91.90
2017-11-03T02:37:18.963Z,92.10
2017-11-03T02:39:46.636Z,92.40
2017-11-03T02:42:14.263Z,92.10
2017-11-03T02:44:41.917Z,92.50
2017-11-03T02:47:09.530Z,93.20
2017-11-03T02:49:37.916Z,93.40
2017-11-03T02:52:05.568Z,93.40
2017-11-03T02:54:33.190Z,93.40
2017-11-03T02:57:00.862Z,93.80
2017-11-03T02:59:28.488Z,93.30
2017-11-03T03:01:56.099Z,93.20
2017-11-03T03:04:23.750Z,93.90
2017-11-03T03:06:51.392Z,93.90
2017-11-03T03:09:19.043Z,94.50
2017-11-03T03:11:46.665Z,93.10
2017-11-03T03:14:14.293Z,93.90
2017-11-03T03:16:41.953Z,94.20
2017-11-03T03:19:09.581Z,94.10
2017-11-03T03:21:37.238Z,94.70
2017-11-03T03:24:04.854Z,94.80
2017-11-03T03:26:32.706Z,94.60
2017-11-03T03:29:00.419Z,94.80
2017-11-03T03:31:28.043Z,93.60
2017-11-03T03:33:55.700Z,93.70
2017-11-03T03:36:23.326Z,93.70
2017-11-03T03:38:50.946Z,93.70
2017-11-03T03:41:18.586Z,94.10
2017-11-03T03:43:46.232Z,94.10
2017-11-03T03:46:13.878Z,93.80
2017-11-03T03:48:41.498Z,94.30
2017-11-03T03:51:09.886Z,94.10
2017-11-03T03:53:37.544Z,94.10
2017-11-03T03:56:05.171Z,94.40
2017-11-03T03:58:33.581Z,94.90
2017-11-03T04:01:01.210Z,94.90
2017-11-03T04:03:28.827Z,95.10
2017-11-03T04:05:57.242Z,95.10
2017-11-03T04:08:24.873Z,95.20
2017-11-03T04:10:52.566Z,95.60
2017-11-03T04:13:20.954Z,94.60
2017-11-03T04:15:49.334Z,94.80
2017-11-03T04:18:16.991Z,94.80
2017-11-03T04:20:44.656Z,95.10
2017-11-03T04:23:12.313Z,94.30
2017-11-03T04:25:39.927Z,93.90
2017-11-03T04:28:07.543Z,93.70
2017-11-03T04:30:35.958Z,93.80
2017-11-03T04:33:03.631Z,93.80
2017-11-03T04:35:31.283Z,94.00
2017-11-03T04:37:58.899Z,93.60
2017-11-03T04:40:26.534Z,92.50
2017-11-03T04:42:54.196Z,92.40
2017-11-03T04:45:22.221Z,93.00
2017-11-03T04:47:49.871Z,92.50
2017-11-03T04:50:17.530Z,93.30
2017-11-03T04:52:45.156Z,93.80
2017-11-03T04:55:12.809Z,93.00
2017-11-03T04:57:40.422Z,93.20
2017-11-03T05:00:08.838Z,93.60
2017-11-03T05:02:36.491Z,93.60
2017-11-03T05:05:04.446Z,93.10
2017-11-03T05:07:32.107Z,93.20
2017-11-03T05:09:59.742Z,92.70
2017-11-03T05:12:27.385Z,94.10
2017-11-03T05:14:55.030Z,93.70
2017-11-03T05:17:22.677Z,94.00
2017-11-03T05:19:50.387Z,94.70
2017-11-03T05:22:18.008Z,95.20
2017-11-03T05:24:46.439Z,95.40
2017-11-03T05:27:14.062Z,95.40
2017-11-03T05:29:41.677Z,95.40
2017-11-03T05:32:10.093Z,96.40
2017-11-03T05:34:37.708Z,96.30
2017-11-03T05:37:06.139Z,96.40
2017-11-03T05:39:34.523Z,96.20
2017-11-03T05:42:02.906Z,95.90
2017-11-03T05:44:30.570Z,95.80
2017-11-03T05:46:58.189Z,96.60
2017-11-03T05:49:25.834Z,96.80
2017-11-03T05:51:53.450Z,96.60
2017-11-03T05:54:21.071Z,96.10
2017-11-03T05:56:48.717Z,95.90
2017-11-03T05:59:16.334Z,96.10
2017-11-03T06:01:43.991Z,96.50
2017-11-03T06:04:11.618Z,96.60
2017-11-03T06:06:39.234Z,96.80
2017-11-03T06:09:07.655Z,96.50
2017-11-03T06:11:35.290Z,96.50
2017-11-03T06:14:02.957Z,96.40
2017-11-03T06:16:30.582Z,96.60
2017-11-03T06:18:58.210Z,96.30
2017-11-03T06:21:25.855Z,96.30
2017-11-03T06:23:53.475Z,96.70
2017-11-03T06:26:21.886Z,96.20
2017-11-03T06:28:49.519Z,96.20
2017-11-03T06:31:17.154Z,95.70
2017-11-03T06:33:44.809Z,95.20
2017-11-03T06:36:12.434Z,94.80
2017-11-03T06:38:40.853Z,94.80
2017-11-03T06:41:08.478Z,94.80
2017-11-03T06:43:36.094Z,95.00
2017-11-03T06:46:04.518Z,94.70
2017-11-03T06:48:32.135Z,94.60
2017-11-03T06:50:59.786Z,93.50
2017-11-03T06:53:27.399Z,92.40
2017-11-03T06:55:55.781Z,92.10
2017-11-03T06:58:23.435Z,92.10
2017-11-03T07:00:51.060Z,90.10
2017-11-03T07:03:18.780Z,91.00
2017-11-03T07:05:47.174Z,91.10
2017-11-03T07:08:14.793Z,91.00
2017-11-03T07:10:42.434Z,89.50
2017-11-03T07:13:10.055Z,89.50
2017-11-03T07:15:37.709Z,88.60
2017-11-03T07:18:05.330Z,87.40
2017-11-03T07:20:32.963Z,87.70
2017-11-03T07:23:00.606Z,88.00
2017-11-03T07:25:28.221Z,87.00
2017-11-03T07:27:56.630Z,86.70
2017-11-03T07:30:24.246Z,86.40
2017-11-03T07:32:51.898Z,86.00
2017-11-03T07:35:19.542Z,86.20
2017-11-03T07:37:47.174Z,86.80
2017-11-03T07:40:15.592Z,85.20
2017-11-03T07:42:43.207Z,85.20
2017-11-03T07:45:10.829Z,86.10
2017-11-03T07:47:39.238Z,83.80
2017-11-03T07:50:06.853Z,83.80
2017-11-03T07:52:34.497Z,83.50
2017-11-03T07:55:02.116Z,84.20
2017-11-03T07:57:29.730Z,84.40
2017-11-03T07:59:57.374Z,83.90
2017-11-03T08:02:25.000Z,82.80
2017-11-03T08:04:52.650Z,84.40
2017-11-03T08:07:20.270Z,83.80
2017-11-03T08:09:48.654Z,84.60
2017-11-03T08:12:16.307Z,84.60
2017-11-03T08:14:43.929Z,83.40
2017-11-03T08:17:12.352Z,82.60
2017-11-03T08:19:39.978Z,82.60
2017-11-03T08:22:07.667Z,81.90
2017-11-03T08:24:35.321Z,83.40
2017-11-03T08:27:02.970Z,82.80
2017-11-03T08:29:31.389Z,80.30
2017-11-03T08:31:59.011Z,80.30
2017-11-03T08:34:26.642Z,80.20
2017-11-03T08:36:54.368Z,79.30
2017-11-03T08:39:22.759Z,78.90
2017-11-03T08:41:50.423Z,78.80
2017-11-03T08:44:18.049Z,79.50
2017-11-03T08:46:46.437Z,78.20
2017-11-03T08:49:14.098Z,78.30
2017-11-03T08:51:42.089Z,78.30
2017-11-03T08:54:09.743Z,75.10
2017-11-03T08:56:38.161Z,76.50
2017-11-03T08:59:05.794Z,76.50
2017-11-03T09:01:33.454Z,75.70
2017-11-03T09:04:01.070Z,75.30
2017-11-03T09:06:28.690Z,73.80
2017-11-03T09:08:56.347Z,74.00
2017-11-03T09:11:24.738Z,75.50
2017-11-03T09:13:52.362Z,75.50
2017-11-03T09:16:20.778Z,64.60
2017-11-03T09:18:48.399Z,65.30
2017-11-03T09:21:16.014Z,62.20
2017-11-03T09:23:44.438Z,54.30
2017-11-03T09:26:12.060Z,54.30
2017-11-03T09:28:39.734Z,55.70
2017-11-03T09:31:07.439Z,51.30
2017-11-03T09:33:35.073Z,49.90
2017-11-03T09:36:02.731Z,50.20
2017-11-03T09:38:30.361Z,53.30
2017-11-03T09:40:58.784Z,58.90
2017-11-03T09:43:26.401Z,58.80
2017-11-03T09:45:54.030Z,58.20
2017-11-03T09:48:21.695Z,57.00
2017-11-03T09:50:49.322Z,57.20
2017-11-03T09:53:16.974Z,56.60
2017-11-03T09:55:44.606Z,52.30
2017-11-03T09:58:12.990Z,51.20
2017-11-03T10:00:40.650Z,51.10
2017-11-03T10:03:08.345Z,49.90
2017-11-03T10:05:36.775Z,37.70
2017-11-03T10:08:04.425Z,37.10
2017-11-03T10:10:32.022Z,34.70
2017-11-03T10:12:59.646Z,29.90
2017-11-03T10:15:27.254Z,26.30
2017-11-03T10:17:54.898Z,27.90
2017-11-03T10:20:22.507Z,25.40
2017-11-03T10:22:50.105Z,25.20
2017-11-03T10:25:17.736Z,27.80
2017-11-03T10:27:45.337Z,27.10
2017-11-03T10:30:12.966Z,30.70
2017-11-03T10:32:40.570Z,28.60
2017-11-03T10:35:08.190Z,32.70
2017-11-03T10:37:35.839Z,43.60
2017-11-03T10:40:03.459Z,42.60
2017-11-03T10:42:31.119Z,45.60
2017-11-03T10:44:59.502Z,54.10
2017-11-03T10:47:27.130Z,54.00
2017-11-03T10:49:55.545Z,54.10
2017-11-03T10:52:23.195Z,54.10
2017-11-03T10:54:50.858Z,54.40
2017-11-03T10:57:18.485Z,53.70
2017-11-03T10:59:46.102Z,52.20
2017-11-03T11:02:13.754Z,51.40
2017-11-03T11:04:41.374Z,55.10
2017-11-03T11:07:09.787Z,52.60
2017-11-03T11:09:37.414Z,52.60
2017-11-03T11:12:05.472Z,49.30
2017-11-03T11:14:33.122Z,47.60
2017-11-03T11:17:00.742Z,47.70
2017-11-03T11:19:28.399Z,47.70
2017-11-03T11:21:56.022Z,46.20
2017-11-03T11:24:24.402Z,46.10
2017-11-03T11:26:52.116Z,46.20
2017-11-03T11:29:19.762Z,46.20
2017-11-03T11:31:47.449Z,47.80
2017-11-03T11:34:15.070Z,48.20
2017-11-03T11:36:43.467Z,47.30
2017-11-03T11:39:11.143Z,47.20
2017-11-03T11:41:38.783Z,45.80
2017-11-03T11:44:06.493Z,49.40
2017-11-03T11:46:34.195Z,52.40
2017-11-03T11:49:01.938Z,54.30
2017-11-03T11:51:29.646Z,54.80
2017-11-03T11:53:57.401Z,55.70
2017-11-03T11:56:25.082Z,57.90
2017-11-03T11:58:52.739Z,59.50
2017-11-03T12:01:20.364Z,59.70
2017-11-03T12:03:48.022Z,60.30
2017-11-03T12:06:15.646Z,59.10
2017-11-03T12:08:43.294Z,57.70
2017-11-03T12:11:10.946Z,58.80
2017-11-03T12:13:38.563Z,57.90
2017-11-03T12:16:07.966Z,57.40
2017-11-03T12:18:35.582Z,56.80
2017-11-03T12:21:04.007Z,58.40
2017-11-03T12:23:31.657Z,58.40
2017-11-03T12:25:59.287Z,56.70
2017-11-03T12:28:26.940Z,57.50
2017-11-03T12:30:54.562Z,53.80
2017-11-03T12:33:22.227Z,51.80
2017-11-03T12:35:49.837Z,51.80
2017-11-03T12:38:17.458Z,50.20
2017-11-03T12:40:45.110Z,50.00
2017-11-03T12:43:13.515Z,48.60
2017-11-03T12:45:41.202Z,48.40
2017-11-03T12:48:08.818Z,49.70
2017-11-03T12:50:36.445Z,48.70
2017-11-03T12:53:04.095Z,53.50
2017-11-03T12:55:31.713Z,49.60
2017-11-03T12:58:00.143Z,51.50
2017-11-03T13:00:27.816Z,51.60
2017-11-03T13:02:56.203Z,52.70
2017-11-03T13:05:23.858Z,52.70
2017-11-03T13:07:51.482Z,50.20
2017-11-03T13:10:19.898Z,40.60
2017-11-03T13:12:47.510Z,40.60
2017-11-03T13:15:15.894Z,31.20
2017-11-03T13:17:43.511Z,31.00
2017-11-03T13:20:11.107Z,26.80
2017-11-03T13:22:38.735Z,20.60
2017-11-03T13:25:06.321Z,19.90
2017-11-03T13:27:33.922Z,21.20
2017-11-03T13:30:01.546Z,19.30
2017-11-03T13:32:29.914Z,23.80
2017-11-03T13:34:58.313Z,25.90
2017-11-03T13:37:25.934Z,25.80
2017-11-03T13:39:53.576Z,29.00
2017-11-03T13:42:21.229Z,35.50
2017-11-03T13:44:48.855Z,38.20
2017-11-03T13:47:16.541Z,41.50
2017-11-03T13:49:44.169Z,47.50
2017-11-03T13:52:11.795Z,45.80
2017-11-03T13:54:39.461Z,42.00
2017-11-03T13:57:07.087Z,42.20
2017-11-03T13:59:34.748Z,39.60
2017-11-03T14:02:02.366Z,44.40
2017-11-03T14:04:30.765Z,48.10
2017-11-03T14:06:58.427Z,48.00
2017-11-03T14:09:26.058Z,48.80
2017-11-03T14:11:53.702Z,50.30
2017-11-03T14:14:21.330Z,52.00
2017-11-03T14:16:49.714Z,54.30
2017-11-03T14:19:17.358Z,54.30
2017-11-03T14:21:44.977Z,56.10
2017-11-03T14:24:13.398Z,55.00
2017-11-03T14:26:41.012Z,54.90
2017-11-03T14:29:08.630Z,55.30
2017-11-03T14:31:37.039Z,53.80
2017-11-03T14:34:04.658Z,53.70
2017-11-03T14:36:32.313Z,55.90
2017-11-03T14:38:59.937Z,54.60
2017-11-03T14:41:27.562Z,55.90
2017-11-03T14:43:55.226Z,56.80
2017-11-03T14:46:23.629Z,60.70
2017-11-03T14:48:51.274Z,60.70
2017-11-03T14:51:18.886Z,58.70
2017-11-03T14:53:46.507Z,58.80
2017-11-03T14:56:14.156Z,63.20
2017-11-03T14:58:41.777Z,64.40
2017-11-03T15:01:09.426Z,68.00
2017-11-03T15:03:37.033Z,66.50
2017-11-03T15:06:04.654Z,66.30
2017-11-03T15:08:33.072Z,67.40
2017-11-03T15:11:00.678Z,67.40
2017-11-03T15:13:29.094Z,70.50
2017-11-03T15:15:56.870Z,70.50
2017-11-03T15:18:24.567Z,70.60
2017-11-03T15:20:52.268Z,70.00
2017-11-03T15:23:19.889Z,71.80
2017-11-03T15:25:47.541Z,73.80
2017-11-03T15:28:15.162Z,75.30
2017-11-03T15:30:42.819Z,75.60
2017-11-03T15:33:10.475Z,74.80
2017-11-03T15:35:38.099Z,76.00
2017-11-03T15:38:06.095Z,77.00
2017-11-03T15:40:33.709Z,77.50
2017-11-03T15:43:01.522Z,78.10
2017-11-03T15:45:29.551Z,78.10
2017-11-03T15:47:57.167Z,79.80
2017-11-03T15:50:24.820Z,81.00
2017-11-03T15:52:52.464Z,82.70
2017-11-03T15:55:20.082Z,83.70
2017-11-03T15:57:47.723Z,82.40
2017-11-03T16:00:15.335Z,82.60
2017-11-03T16:02:42.978Z,82.90
2017-11-03T16:05:10.599Z,82.60
2017-11-03T16:07:38.262Z,83.40
2017-11-03T16:10:05.950Z,85.10
2017-11-03T16:12:33.575Z,85.40
2017-11-03T16:15:02.009Z,86.60
2017-11-03T16:17:30.857Z,86.50
2017-11-03T16:19:58.586Z,88.40
2017-11-03T16:22:30.084Z,88.60
2017-11-03T16:24:58.372Z,88.70
2017-11-03T16:27:27.105Z,88.40
2017-11-03T16:29:55.522Z,88.70
2017-11-03T16:32:23.279Z,88.70
2017-11-03T16:34:51.112Z,90.00
2017-11-03T16:37:18.747Z,90.20
2017-11-03T16:39:48.118Z,90.70
2017-11-03T16:42:16.666Z,90.60
2017-11-03T16:44:44.323Z,90.60
2017-11-03T16:47:11.971Z,90.60
2017-11-03T16:49:39.599Z,90.80
2017-11-03T16:52:07.281Z,91.00
2017-11-03T16:54:35.971Z,92.60
2017-11-03T16:57:03.793Z,92.50
2017-11-03T16:59:31.446Z,93.00
2017-11-03T17:02:00.006Z,93.50
2017-11-03T17:04:29.203Z,93.10
2017-11-03T17:06:57.327Z,93.00
2017-11-03T17:09:25.624Z,93.20
2017-11-03T17:11:53.346Z,93.70
2017-11-03T17:14:21.006Z,94.20
2017-11-03T17:16:49.540Z,93.90
2017-11-03T17:19:17.558Z,93.40
2017-11-03T17:21:46.624Z,94.10
2017-11-03T17:24:14.574Z,94.80
2017-11-03T17:26:43.031Z,94.50
2017-11-03T17:29:12.844Z,94.50
2017-11-03T17:31:40.572Z,94.40
2017-11-03T17:34:09.018Z,95.10
2017-11-03T17:36:36.696Z,95.10
2017-11-03T17:39:06.626Z,94.10
2017-11-03T17:41:34.298Z,94.00
2017-11-03T17:44:01.949Z,94.20
2017-11-03T17:46:29.623Z,94.30
2017-11-03T17:48:57.289Z,93.80
2017-11-03T17:51:24.918Z,94.30
2017-11-03T17:53:52.619Z,93.80
2017-11-03T17:56:20.246Z,94.60
2017-11-03T17:58:47.881Z,95.20
2017-11-03T18:01:16.547Z,95.00
2017-11-03T18:03:44.236Z,94.90
2017-11-03T18:06:11.975Z,95.50
2017-11-03T18:08:40.090Z,95.30
2017-11-03T18:11:08.479Z,95.80
2017-11-03T18:13:36.740Z,95.80
2017-11-03T18:16:04.430Z,95.70
2017-11-03T18:18:32.133Z,95.50
2017-11-03T18:21:00.289Z,94.90
2017-11-03T18:23:28.274Z,94.90
2017-11-03T18:25:57.317Z,94.60
2017-11-03T18:28:25.275Z,94.50
2017-11-03T18:30:53.010Z,94.10
2017-11-03T18:33:21.208Z,94.00
2017-11-03T18:35:49.526Z,94.60
2017-11-03T18:38:17.446Z,94.80
2017-11-03T18:40:45.105Z,95.10
2017-11-03T18:43:12.776Z,94.70
2017-11-03T18:45:41.319Z,95.30
2017-11-03T18:48:09.007Z,95.00
2017-11-03T18:50:36.699Z,95.00
2017-11-03T18:53:04.475Z,94.80
2017-11-03T18:55:32.922Z,95.20
2017-11-03T18:58:00.567Z,95.20
2017-11-03T19:00:28.368Z,94.80
2017-11-03T19:02:56.603Z,94.00
2017-11-03T19:05:25.044Z,94.60
2017-11-03T19:07:52.720Z,94.50
2017-11-03T19:10:20.676Z,94.50
2017-11-03T19:12:48.341Z,95.60
2017-11-03T19:15:16.039Z,95.50
2017-11-03T19:17:43.700Z,95.20
2017-11-03T19:20:11.635Z,95.20
2017-11-03T19:22:39.246Z,95.20
2017-11-03T19:25:06.922Z,94.70
2017-11-03T19:27:34.652Z,94.70
2017-11-03T19:30:02.602Z,95.00
2017-11-03T19:32:30.349Z,95.70
2017-11-03T19:34:58.827Z,95.40
2017-11-03T19:37:28.304Z,95.40
2017-11-03T19:39:56.271Z,95.20
2017-11-03T19:42:23.930Z,94.70
2017-11-03T19:44:51.686Z,95.00
2017-11-03T19:47:19.330Z,95.20
2017-11-03T19:49:46.950Z,94.70
2017-11-03T19:52:14.641Z,94.80
2017-11-03T19:54:43.269Z,95.00
2017-11-03T19:57:11.131Z,94.70
2017-11-03T19:59:39.254Z,94.80
2017-11-03T20:02:07.158Z,95.30
2017-11-03T20:04:34.885Z,95.20
2017-11-03T20:07:02.502Z,95.20
2017-11-03T20:09:30.145Z,94.80
2017-11-03T20:11:59.138Z,94.90
2017-11-03T20:14:26.787Z,94.90
2017-11-03T20:16:54.435Z,95.40
2017-11-03T20:19:23.267Z,95.50
2017-11-03T20:21:50.910Z,95.70
2017-11-03T20:24:18.523Z,96.00
2017-11-03T20:26:46.166Z,96.20
2017-11-03T20:29:14.570Z,96.40
2017-11-03T20:31:42.681Z,96.50
2017-11-03T20:34:10.345Z,96.30
2017-11-03T20:36:37.959Z,95.70
2017-11-03T20:39:05.580Z,95.80
2017-11-03T20:41:34.003Z,95.80
2017-11-03T20:44:01.622Z,95.70
2017-11-03T20:46:37.620Z,95.70
2017-11-03T20:49:06.006Z,96.20
2017-11-03T20:51:34.432Z,95.10
2017-11-03T20:54:02.054Z,95.10
2017-11-03T20:56:30.115Z,95.50
2017-11-03T20:58:57.828Z,95.70
2017-11-03T21:01:25.464Z,95.80
2017-11-03T21:03:53.179Z,95.60
2017-11-03T21:06:20.855Z,95.80
2017-11-03T21:08:49.243Z,95.70
2017-11-03T21:11:18.118Z,96.30
2017-11-03T21:13:45.883Z,95.10
2017-11-03T21:16:13.559Z,95.00
2017-11-03T21:18:41.177Z,95.10
2017-11-03T21:21:08.839Z,95.20
2017-11-03T21:23:36.499Z,95.00
2017-11-03T21:26:04.126Z,95.30
2017-11-03T21:28:31.780Z,95.70
2017-11-03T21:30:59.398Z,95.60
2017-11-03T21:33:27.016Z,95.80
2017-11-03T21:35:55.471Z,95.50
2017-11-03T21:38:23.883Z,95.70
2017-11-03T21:40:51.532Z,95.60
2017-11-03T21:43:19.170Z,95.70
2017-11-03T21:45:46.786Z,95.20
2017-11-03T21:48:15.203Z,95.40
2017-11-03T21:50:42.814Z,95.40
2017-11-03T21:53:10.470Z,96.00
2017-11-03T21:55:38.088Z,96.10
2017-11-03T21:58:06.474Z,95.80
2017-11-03T22:00:34.334Z,95.60
2017-11-03T22:03:02.382Z,95.60
2017-11-03T22:05:30.039Z,96.00
2017-11-03T22:07:57.831Z,95.30
2017-11-03T22:10:25.549Z,95.60
2017-11-03T22:12:53.421Z,95.50
2017-11-03T22:15:21.043Z,95.90
2017-11-03T22:17:48.695Z,96.10
2017-11-03T22:20:16.314Z,96.30
2017-11-03T22:22:44.101Z,98.30
2017-11-03T22:25:11.755Z,96.80
2017-11-03T22:27:39.374Z,96.10
2017-11-03T22:30:07.168Z,96.00
2017-11-03T22:32:34.946Z,96.30
2017-11-03T22:35:03.334Z,96.00
2017-11-03T22:37:31.014Z,96.00
2017-11-03T22:39:58.679Z,96.50
2017-11-03T22:42:27.243Z,96.20
2017-11-03T22:44:55.023Z,96.20
2017-11-03T22:47:23.566Z,96.20
2017-11-03T22:49:51.454Z,96.20
2017-11-03T22:52:19.242Z,96.50
2017-11-03T22:54:46.939Z,96.60
2017-11-03T22:57:14.625Z,98.20
2017-11-03T22:59:42.276Z,96.10
2017-11-03T23:02:10.046Z,95.50
2017-11-03T23:04:37.674Z,95.80
2017-11-03T23:07:05.410Z,96.10
2017-11-03T23:09:33.511Z,96.40
2017-11-03T23:12:01.183Z,97.20
2017-11-03T23:14:28.893Z,97.20
2017-11-03T23:16:56.525Z,97.70
2017-11-03T23:19:24.186Z,97.00
2017-11-03T23:21:56.768Z,96.40
2017-11-03T23:24:25.302Z,96.10
2017-11-03T23:26:53.092Z,96.10
2017-11-03T23:29:21.543Z,95.60
2017-11-03T23:31:49.218Z,95.40
2017-11-03T23:34:17.635Z,95.10
2017-11-03T23:36:45.318Z,95.10
2017-11-03T23:39:13.770Z,96.50
2017-11-03T23:41:41.381Z,96.50
2017-11-03T23:44:09.163Z,95.40
2017-11-03T23:46:36.859Z,96.90
2017-11-03T23:49:04.671Z,93.80
2017-11-03T23:51:33.190Z,91.20
2017-11-03T23:54:00.825Z,91.10
2017-11-03T23:56:28.523Z,87.90
2017-11-03T23:58:56.577Z,84.70
